Time;durP1;ratioP1;P1;durP2;ratioP2;P2;SDS_P1;SDS_P2;PMS_P1;PMS_P2;Temp;Humidity;BMP_temperature;BMP_pressure;BME280_temperature;BME280_humidity;BME280_pressure;Samples;Min_cycle;Max_cycle;Signal;HPM_P1;HPM_P2
2021/08/01 00:01:07;;;;;;;;;6.00;5.25;;;;;21.29;44.39;100686.72;5082956;27;45214;-51
2021/08/01 00:03:33;;;;;;;;;4.50;4.50;;;;;21.25;44.00;100689.56;5098482;27;45240;-49
2021/08/01 00:05:58;;;;;;;;;5.25;4.00;;;;;21.25;43.84;100688.72;5115936;27;45284;-47
2021/08/01 00:08:24;;;;;;;;;4.50;3.25;;;;;21.22;44.23;100688.88;5082733;27;45220;-52
2021/08/01 00:10:50;;;;;;;;;6.00;4.75;;;;;21.21;44.16;100689.84;5082495;27;46198;-51
2021/08/01 00:13:15;;;;;;;;;6.00;3.00;;;;;21.19;44.04;100689.91;5082489;27;45221;-49
2021/08/01 00:15:41;;;;;;;;;5.00;5.00;;;;;21.15;44.52;100693.72;5082900;27;45291;-50
2021/08/01 00:18:06;;;;;;;;;6.00;5.25;;;;;21.14;44.23;100686.66;5098391;27;45598;-49
2021/08/01 00:20:31;;;;;;;;;7.25;5.75;;;;;21.11;44.05;100685.03;5098035;27;47068;-49
2021/08/01 00:22:57;;;;;;;;;7.75;6.75;;;;;21.10;44.25;100687.81;5081142;28;45314;-51
2021/08/01 00:25:22;;;;;;;;;7.25;7.00;;;;;21.07;44.58;100688.84;5082658;28;45302;-49
2021/08/01 00:27:49;;;;;;;;;6.00;5.25;;;;;21.06;44.29;100688.94;5081974;28;45299;-51
2021/08/01 00:30:15;;;;;;;;;6.00;5.00;;;;;21.03;44.64;100684.66;5082450;28;47028;-51
2021/08/01 00:32:40;;;;;;;;;7.00;6.00;;;;;21.00;44.40;100692.81;5082167;28;45335;-49
2021/08/01 00:35:07;;;;;;;;;7.00;5.25;;;;;20.98;44.25;100691.19;5082577;27;45301;-52
2021/08/01 00:37:33;;;;;;;;;6.50;6.50;;;;;20.96;44.17;100695.78;5082390;28;45165;-48
2021/08/01 00:39:58;;;;;;;;;5.50;4.25;;;;;20.93;44.24;100696.81;5082403;27;45309;-49
2021/08/01 00:42:24;;;;;;;;;6.00;5.75;;;;;20.89;44.27;100698.81;5080432;28;45251;-50
2021/08/01 00:44:49;;;;;;;;;6.75;6.00;;;;;20.87;44.95;100702.53;5082367;28;45648;-50
2021/08/01 00:47:14;;;;;;;;;4.00;4.00;;;;;20.83;44.43;100698.28;5082078;28;45243;-51
2021/08/01 00:49:40;;;;;;;;;7.75;6.00;;;;;20.80;44.99;100703.81;5082008;28;45216;-49
2021/08/01 00:52:06;;;;;;;;;6.00;4.00;;;;;20.76;44.61;100701.31;5081950;28;45235;-50
2021/08/01 00:54:33;;;;;;;;;6.50;5.00;;;;;20.75;44.53;100701.41;5082328;28;45335;-48
2021/08/01 00:57:00;;;;;;;;;7.75;6.75;;;;;20.72;44.50;100704.28;5081501;28;45335;-48
2021/08/01 00:59:26;;;;;;;;;6.00;5.00;;;;;20.70;44.44;100693.63;5081949;28;46203;-49
2021/08/01 01:01:59;;;;;;;;;5.75;4.75;;;;;20.68;44.65;100697.31;5080256;28;45314;-50
2021/08/01 01:04:28;;;;;;;;;4.50;4.25;;;;;20.66;44.74;100707.25;5081343;28;45317;-52
2021/08/01 01:07:05;;;;;;;;;6.00;5.75;;;;;20.62;44.62;100702.06;5081753;28;45273;-47
2021/08/01 01:09:46;;;;;;;;;4.00;4.00;;;;;20.59;44.61;100702.25;5081635;28;45323;-51
2021/08/01 01:12:15;;;;;;;;;4.25;4.00;;;;;20.58;45.30;100702.34;5081534;28;45484;-48
2021/08/01 01:14:48;;;;;;;;;4.00;4.00;;;;;20.53;44.64;100702.59;5081679;28;45294;-50
2021/08/01 01:17:18;;;;;;;;;4.25;4.25;;;;;20.50;44.85;100693.91;5080343;28;45408;-50
2021/08/01 01:20:02;;;;;;;;;6.00;5.50;;;;;20.49;44.98;100702.84;5081233;27;45284;-52
2021/08/01 01:22:38;;;;;;;;;4.00;4.00;;;;;20.43;44.69;100691.59;5080296;28;45338;-50
2021/08/01 01:25:13;;;;;;;;;6.25;4.25;;;;;20.43;45.29;100688.91;5081727;28;45471;-50
2021/08/01 01:27:46;;;;;;;;;5.25;5.25;;;;;20.40;45.09;100699.78;5080936;28;45335;-49
2021/08/01 01:30:11;;;;;;;;;4.00;4.00;;;;;20.39;45.35;100702.50;5063589;28;47416;-50
2021/08/01 01:33:01;;;;;;;;;4.50;4.50;;;;;20.37;44.86;100705.28;5081118;28;45337;-51
2021/08/01 01:35:31;;;;;;;;;4.00;4.00;;;;;20.33;44.87;100703.72;5081448;28;45291;-47
2021/08/01 01:37:58;;;;;;;;;7.25;6.00;;;;;20.29;45.43;100697.69;5081422;28;45465;-48
2021/08/01 01:40:24;;;;;;;;;7.50;5.00;;;;;20.29;45.04;100703.03;5080777;27;46374;-51
2021/08/01 01:42:52;;;;;;;;;6.50;5.00;;;;;20.29;45.04;100715.53;5081368;28;45433;-51
2021/08/01 01:45:18;;;;;;;;;4.00;4.00;;;;;20.25;45.38;100705.94;5081087;28;45246;-50
2021/08/01 01:47:50;;;;;;;;;5.00;5.00;;;;;20.26;45.28;100711.22;5081312;28;45223;-52
2021/08/01 01:50:17;;;;;;;;;6.00;6.00;;;;;20.25;45.20;100709.50;5080818;28;46937;-48
2021/08/01 01:52:48;;;;;;;;;7.00;5.75;;;;;20.22;45.56;100700.78;5079824;28;45256;-48
2021/08/01 01:55:16;;;;;;;;;6.25;5.00;;;;;20.22;45.08;100712.31;5079785;28;45369;-51
2021/08/01 01:57:42;;;;;;;;;6.00;4.50;;;;;20.22;45.19;100703.47;5080699;28;45454;-51
2021/08/01 02:00:08;;;;;;;;;6.50;5.00;;;;;20.20;45.68;100692.00;5080716;27;45302;-48
2021/08/01 02:02:36;;;;;;;;;6.25;4.50;;;;;20.17;45.46;100700.19;5081106;28;45258;-50
2021/08/01 02:05:01;;;;;;;;;5.00;4.50;;;;;20.18;45.79;100700.09;5080764;28;45339;-50
2021/08/01 02:07:27;;;;;;;;;5.00;4.00;;;;;20.19;45.11;100700.94;5081069;28;45326;-51
2021/08/01 02:10:04;;;;;;;;;5.25;5.25;;;;;20.18;45.40;100691.25;5080720;28;46114;-47
2021/08/01 02:12:40;;;;;;;;;7.25;5.50;;;;;20.17;45.86;100694.84;5080473;28;45428;-50
2021/08/01 02:15:13;;;;;;;;;4.75;4.75;;;;;20.17;45.41;100702.84;5080774;28;45336;-49
2021/08/01 02:17:47;;;;;;;;;6.00;6.00;;;;;20.17;45.40;100689.53;5079769;28;45338;-49
2021/08/01 02:20:15;;;;;;;;;4.25;3.50;;;;;20.18;45.67;100696.59;5079009;27;46175;-50
2021/08/01 02:22:42;;;;;;;;;6.00;5.00;;;;;20.16;45.83;100699.31;5080557;28;45330;-49
2021/08/01 02:25:10;;;;;;;;;4.25;4.25;;;;;20.14;45.54;100694.06;5080833;28;45270;-49
2021/08/01 02:27:38;;;;;;;;;5.25;5.25;;;;;20.17;45.97;100702.84;5080046;28;45525;-48
2021/08/01 02:30:04;;;;;;;;;5.00;5.00;;;;;20.17;46.00;100695.72;5080421;27;46304;-50
2021/08/01 02:32:32;;;;;;;;;4.25;4.25;;;;;20.18;45.48;100701.91;5080316;28;45318;-51
2021/08/01 02:35:00;;;;;;;;;5.25;5.25;;;;;20.19;46.00;100695.63;5080591;27;45212;-52
2021/08/01 02:37:27;;;;;;;;;6.00;6.00;;;;;20.19;45.77;100690.28;5080322;28;45268;-51
2021/08/01 02:39:54;;;;;;;;;5.50;4.00;;;;;20.20;45.99;100697.34;5080211;28;45280;-51
2021/08/01 02:42:22;;;;;;;;;3.75;3.75;;;;;20.20;46.09;100687.56;5079874;28;45322;-51
2021/08/01 02:44:50;;;;;;;;;5.00;5.00;;;;;20.20;45.72;100681.34;5080381;28;45327;-51
2021/08/01 02:47:18;;;;;;;;;5.75;4.50;;;;;20.20;46.02;100682.22;5080265;28;45227;-49
2021/08/01 02:49:46;;;;;;;;;3.50;3.50;;;;;20.19;45.89;100674.28;5079986;28;46984;-48
2021/08/01 02:52:30;;;;;;;;;7.00;5.25;;;;;20.19;46.27;100675.16;5080075;28;45255;-53
2021/08/01 02:54:57;;;;;;;;;8.50;7.00;;;;;20.20;45.86;100682.22;5080216;28;45317;-50
2021/08/01 02:57:26;;;;;;;;;4.00;4.00;;;;;20.20;45.98;100676.88;5079847;28;45511;-50
2021/08/01 02:59:52;;;;;;;;;6.00;6.00;;;;;20.20;46.35;100678.66;5079817;27;46254;-48
2021/08/01 03:02:18;;;;;;;;;9.25;6.00;;;;;20.20;46.12;100681.34;5080006;28;45320;-49
2021/08/01 03:04:44;;;;;;;;;6.00;5.25;;;;;20.19;46.12;100684.94;5078792;28;45342;-51
2021/08/01 03:07:13;;;;;;;;;7.00;6.00;;;;;20.18;46.32;100680.59;5080117;28;45530;-51
2021/08/01 03:09:38;;;;;;;;;4.75;4.75;;;;;20.19;46.58;100677.81;5078638;28;48107;-49
2021/08/01 03:12:15;;;;;;;;;9.25;5.25;;;;;20.19;46.08;100679.59;5079613;27;45174;-46
2021/08/01 03:14:40;;;;;;;;;6.25;6.25;;;;;20.19;46.32;100682.28;5080030;28;45287;-48
2021/08/01 03:17:07;;;;;;;;;6.25;5.50;;;;;20.17;46.46;100678.84;5079926;28;45508;-49
2021/08/01 03:19:34;;;;;;;;;8.00;8.00;;;;;20.17;46.70;100681.53;5079547;28;46058;-51
2021/08/01 03:22:00;;;;;;;;;5.00;5.00;;;;;20.15;46.50;100681.63;5079699;28;45403;-48
2021/08/01 03:24:25;;;;;;;;;6.25;6.00;;;;;20.12;46.31;100677.31;5061837;28;45344;-51
2021/08/01 03:26:51;;;;;;;;;8.00;7.00;;;;;20.14;46.62;100690.56;5079572;28;45443;-49
2021/08/01 03:29:17;;;;;;;;;7.00;7.00;;;;;20.13;46.91;100692.34;5083216;28;45673;-48
2021/08/01 03:31:42;;;;;;;;;7.75;6.00;;;;;20.12;46.47;100689.75;5083354;27;45248;-51
2021/08/01 03:34:07;;;;;;;;;6.75;6.75;;;;;20.09;46.47;100685.47;5083360;28;45195;-50
2021/08/01 03:36:33;;;;;;;;;5.50;5.50;;;;;20.10;46.76;100684.53;5083350;28;45211;-48
2021/08/01 03:38:58;;;;;;;;;7.00;7.00;;;;;20.10;47.12;100683.66;5083025;28;46276;-49
2021/08/01 03:41:23;;;;;;;;;8.25;5.50;;;;;20.07;46.55;100682.00;5083047;27;45284;-48
2021/08/01 03:43:49;;;;;;;;;7.00;6.00;;;;;20.05;46.70;100686.59;5083121;28;45226;-49
2021/08/01 03:46:14;;;;;;;;;7.00;6.00;;;;;20.04;46.97;100687.53;5083153;28;45705;-51
2021/08/01 03:48:39;;;;;;;;;3.75;3.75;;;;;20.03;46.97;100691.13;5081684;28;46950;-49
2021/08/01 03:51:04;;;;;;;;;5.25;4.50;;;;;20.00;46.49;100688.66;5083014;27;45187;-50
2021/08/01 03:53:31;;;;;;;;;5.75;3.00;;;;;19.96;46.88;100684.41;5083211;28;45473;-51
2021/08/01 03:55:56;;;;;;;;;4.00;3.50;;;;;19.93;46.38;100685.44;5083013;28;45472;-47
2021/08/01 03:58:22;;;;;;;;;6.75;4.50;;;;;19.94;46.68;100684.50;5082502;28;45347;-48
2021/08/01 04:00:48;;;;;;;;;4.50;3.00;;;;;19.92;46.93;100681.06;5083010;28;45357;-48
2021/08/01 04:03:14;;;;;;;;;3.50;3.50;;;;;19.91;46.44;100691.78;5082948;28;45286;-48
2021/08/01 04:05:39;;;;;;;;;3.00;3.00;;;;;19.89;46.98;100688.38;5082863;28;45409;-51
2021/08/01 04:08:05;;;;;;;;;4.75;4.50;;;;;19.87;46.47;100685.75;5082584;28;45379;-48
2021/08/01 04:10:30;;;;;;;;;5.00;5.00;;;;;19.84;46.51;100682.44;5082598;28;45335;-49
2021/08/01 04:12:56;;;;;;;;;4.00;4.00;;;;;19.83;46.90;100689.53;5082553;28;45433;-48
2021/08/01 04:15:21;;;;;;;;;2.00;2.00;;;;;19.78;46.78;100676.41;5082840;28;45620;-49
2021/08/01 04:17:46;;;;;;;;;4.00;4.00;;;;;19.77;46.73;100680.06;5081193;28;45898;-50
2021/08/01 04:20:12;;;;;;;;;4.00;4.00;;;;;19.77;47.08;100688.06;5082538;27;45469;-50
2021/08/01 04:22:37;;;;;;;;;3.50;3.50;;;;;19.75;46.99;100683.75;5081486;28;45314;-51
2021/08/01 04:25:03;;;;;;;;;3.00;3.00;;;;;19.71;46.53;100675.06;5082673;28;45245;-50
2021/08/01 04:27:29;;;;;;;;;4.25;3.50;;;;;19.68;46.71;100674.34;5081990;28;46746;-50
2021/08/01 04:29:54;;;;;;;;;3.50;3.50;;;;;19.68;46.85;100679.69;5082403;27;45236;-49
2021/08/01 04:32:19;;;;;;;;;6.50;2.50;;;;;19.64;46.66;100676.31;5082470;28;45160;-51
2021/08/01 04:34:45;;;;;;;;;4.00;4.00;;;;;19.64;47.33;100684.31;5082338;28;46248;-52
2021/08/01 04:37:10;;;;;;;;;6.00;4.25;;;;;19.61;47.14;100685.34;5082317;28;45161;-49
2021/08/01 04:39:35;;;;;;;;;5.00;4.75;;;;;19.60;46.70;100688.94;5080100;28;45300;-50
2021/08/01 04:42:01;;;;;;;;;4.50;4.25;;;;;19.57;46.63;100683.78;5080733;28;45278;-48
2021/08/01 04:44:26;;;;;;;;;5.50;5.00;;;;;19.57;46.83;100682.91;5082321;28;45227;-52
2021/08/01 04:46:51;;;;;;;;;4.75;4.75;;;;;19.55;47.28;100691.00;5082140;28;46053;-51
2021/08/01 04:49:17;;;;;;;;;7.00;7.00;;;;;19.52;47.05;100680.50;5082188;28;45259;-48
2021/08/01 04:51:42;;;;;;;;;8.00;8.00;;;;;19.52;47.07;100687.63;5082269;28;45307;-49
2021/08/01 04:54:08;;;;;;;;;6.75;5.75;;;;;19.47;47.36;100679.84;5082223;28;45300;-51
2021/08/01 04:56:33;;;;;;;;;5.25;5.00;;;;;19.46;47.25;100681.66;5081761;28;46390;-52
2021/08/01 04:58:59;;;;;;;;;8.75;6.75;;;;;19.46;47.40;100687.00;5081868;28;45330;-48
2021/08/01 05:01:24;;;;;;;;;5.75;5.75;;;;;19.46;47.41;100684.34;5081864;27;45268;-50
2021/08/01 05:03:49;;;;;;;;;7.25;7.00;;;;;19.44;47.07;100683.53;5081937;28;45251;-52
2021/08/01 05:06:15;;;;;;;;;7.00;7.00;;;;;19.45;47.54;100674.63;5081914;28;46248;-49
2021/08/01 05:08:40;;;;;;;;;7.00;7.00;;;;;19.43;47.20;100676.53;5081961;28;45477;-51
2021/08/01 05:11:06;;;;;;;;;9.00;7.50;;;;;19.44;47.62;100680.88;5081745;27;45291;-50
2021/08/01 05:13:31;;;;;;;;;10.25;7.50;;;;;19.44;47.50;100675.56;5081656;28;45330;-52
2021/08/01 05:15:56;;;;;;;;;5.25;5.25;;;;;19.44;47.44;100678.22;5081675;28;45390;-52
2021/08/01 05:18:22;;;;;;;;;7.00;7.00;;;;;19.44;47.31;100680.03;5081839;28;45293;-49
2021/08/01 05:20:48;;;;;;;;;8.00;6.00;;;;;19.44;47.22;100678.22;5081585;28;45319;-52
2021/08/01 05:23:13;;;;;;;;;5.75;5.75;;;;;19.43;47.51;100686.28;5081705;28;45473;-51
2021/08/01 05:25:38;;;;;;;;;8.50;7.00;;;;;19.44;47.61;100685.38;5081233;28;46077;-52
2021/08/01 05:28:04;;;;;;;;;7.00;6.25;;;;;19.44;47.74;100693.34;5081613;28;45224;-48
2021/08/01 05:30:29;;;;;;;;;6.75;6.75;;;;;19.44;47.65;100688.88;5081702;27;45480;-49
2021/08/01 05:32:55;;;;;;;;;7.75;6.50;;;;;19.38;47.38;100683.00;5080037;28;45263;-51
2021/08/01 05:35:20;;;;;;;;;5.50;5.25;;;;;19.44;47.42;100698.69;5081471;27;45252;-49
2021/08/01 05:37:45;;;;;;;;;6.00;6.00;;;;;19.41;47.86;100689.06;5081425;28;45211;-49
2021/08/01 05:40:11;;;;;;;;;7.00;5.00;;;;;19.42;47.83;100692.56;5081453;28;45249;-52
2021/08/01 05:42:37;;;;;;;;;4.00;3.25;;;;;19.41;48.09;100689.06;5081291;28;45575;-48
2021/08/01 05:45:04;;;;;;;;;5.25;5.25;;;;;19.40;47.52;100689.13;5081221;28;46418;-48
2021/08/01 05:47:30;;;;;;;;;9.75;9.25;;;;;19.40;48.02;100692.66;5081154;28;45304;-51
2021/08/01 05:49:55;;;;;;;;;3.75;3.75;;;;;19.38;47.83;100694.53;5080924;28;45607;-51
2021/08/01 05:52:21;;;;;;;;;6.50;6.00;;;;;19.38;47.91;100693.66;5081217;28;45389;-50
2021/08/01 05:54:46;;;;;;;;;4.25;3.75;;;;;19.39;47.89;100692.72;5081050;28;45838;-49
2021/08/01 05:57:11;;;;;;;;;3.25;3.25;;;;;19.39;47.83;100695.41;5080692;28;45302;-50
2021/08/01 05:59:37;;;;;;;;;4.25;4.25;;;;;19.38;48.17;100699.84;5081219;28;45215;-51
2021/08/01 06:02:02;;;;;;;;;6.00;5.00;;;;;19.38;48.29;100699.00;5080852;28;45169;-49
2021/08/01 06:04:27;;;;;;;;;3.00;3.00;;;;;19.37;48.14;100700.81;5080977;28;46309;-49
2021/08/01 06:06:53;;;;;;;;;3.25;3.25;;;;;19.35;48.21;100705.34;5080846;28;45225;-52
2021/08/01 06:09:18;;;;;;;;;2.25;2.25;;;;;19.34;47.98;100700.97;5081176;28;45219;-52
2021/08/01 06:11:43;;;;;;;;;3.25;3.25;;;;;19.32;47.91;100700.19;5080459;28;45553;-49
2021/08/01 06:14:09;;;;;;;;;3.00;3.00;;;;;19.31;48.17;100704.63;5081027;28;45335;-49
2021/08/01 06:16:34;;;;;;;;;3.75;3.75;;;;;19.32;48.01;100710.84;5080774;28;45238;-48
2021/08/01 06:19:00;;;;;;;;;4.00;3.25;;;;;19.29;47.93;100719.84;5080903;28;45254;-50
2021/08/01 06:21:27;;;;;;;;;4.00;2.00;;;;;19.26;48.38;100708.50;5079206;28;45863;-48
2021/08/01 06:23:53;;;;;;;;;6.00;3.00;;;;;19.26;48.50;100711.16;5079359;28;47152;-50
2021/08/01 06:26:20;;;;;;;;;5.25;5.00;;;;;19.25;48.23;100710.28;5080151;28;45409;-49
2021/08/01 06:28:46;;;;;;;;;5.00;4.75;;;;;19.24;48.55;100713.88;5080737;28;45338;-49
2021/08/01 06:31:12;;;;;;;;;8.00;4.00;;;;;19.24;48.56;100713.03;5079074;28;45330;-50
2021/08/01 06:33:38;;;;;;;;;3.50;3.50;;;;;19.22;48.16;100712.22;5080334;28;46033;-48
2021/08/01 06:36:15;;;;;;;;;4.75;3.50;;;;;19.23;48.37;100720.19;5080415;27;45287;-50
2021/08/01 06:38:42;;;;;;;;;7.00;4.75;;;;;19.23;48.40;100720.19;5080519;28;45201;-51
2021/08/01 06:41:08;;;;;;;;;3.50;3.50;;;;;19.23;48.58;100719.28;5078832;28;45693;-50
2021/08/01 06:43:34;;;;;;;;;4.25;3.00;;;;;19.23;48.54;100722.84;5078703;28;47062;-50
2021/08/01 06:45:59;;;;;;;;;2.50;2.25;;;;;19.23;48.56;100729.94;5080378;28;45444;-53
2021/08/01 06:48:24;;;;;;;;;4.00;3.00;;;;;19.23;48.62;100727.28;5080454;28;45307;-51
2021/08/01 06:50:50;;;;;;;;;4.00;4.00;;;;;19.21;48.55;100730.03;5080261;27;45338;-51
2021/08/01 06:53:16;;;;;;;;;5.00;4.00;;;;;19.21;48.75;100729.19;5080244;28;45273;-51
2021/08/01 06:55:42;;;;;;;;;3.50;3.25;;;;;19.22;48.75;100729.09;5080113;28;45283;-48
2021/08/01 06:58:07;;;;;;;;;4.25;4.00;;;;;19.23;48.54;100727.28;5078817;28;45322;-52
2021/08/01 07:00:33;;;;;;;;;3.75;3.75;;;;;19.23;48.54;100732.59;5080175;27;45211;-51
2021/08/01 07:03:01;;;;;;;;;5.00;5.00;;;;;19.22;48.78;100737.09;5080354;28;45273;-47
2021/08/01 07:05:27;;;;;;;;;4.00;4.00;;;;;19.23;48.62;100733.50;5083845;28;45403;-51
2021/08/01 07:07:55;;;;;;;;;3.50;3.50;;;;;19.23;48.97;100729.94;5083839;28;45320;-51
2021/08/01 07:10:20;;;;;;;;;4.75;3.25;;;;;19.23;48.73;100735.28;5083448;27;45608;-51
2021/08/01 07:12:46;;;;;;;;;5.75;3.25;;;;;19.25;48.45;100738.72;5083290;28;45971;-48
2021/08/01 07:15:13;;;;;;;;;3.00;3.00;;;;;19.25;48.70;100742.25;5083777;28;45287;-49
2021/08/01 07:17:39;;;;;;;;;6.00;5.00;;;;;19.24;49.18;100742.34;5083827;28;45309;-52
2021/08/01 07:20:07;;;;;;;;;2.50;2.25;;;;;19.24;48.62;100745.84;5083315;27;45213;-48
2021/08/01 07:22:33;;;;;;;;;3.50;3.50;;;;;19.25;49.05;100750.25;5083313;28;46419;-50
2021/08/01 07:24:58;;;;;;;;;3.75;3.00;;;;;19.27;48.74;100753.69;5083337;28;45350;-51
2021/08/01 07:27:23;;;;;;;;;4.75;4.25;;;;;19.29;48.65;100750.94;5081532;28;45303;-51
2021/08/01 07:29:49;;;;;;;;;4.25;4.25;;;;;19.29;48.81;100750.94;5083198;27;45302;-52
2021/08/01 07:32:14;;;;;;;;;2.00;2.00;;;;;19.30;49.06;100758.00;5082827;28;46103;-51
2021/08/01 07:34:39;;;;;;;;;4.25;3.25;;;;;19.30;48.91;100758.00;5083038;28;45505;-51
2021/08/01 07:37:05;;;;;;;;;2.75;2.00;;;;;19.33;49.15;100766.72;5081819;28;45325;-50
2021/08/01 07:39:30;;;;;;;;;3.00;3.00;;;;;19.36;49.23;100756.81;5083013;28;45507;-52
2021/08/01 07:41:55;;;;;;;;;4.75;3.00;;;;;19.36;49.17;100759.47;5082369;27;46051;-51
2021/08/01 07:44:22;;;;;;;;;2.75;2.75;;;;;19.36;48.94;100759.47;5082739;28;46067;-50
2021/08/01 07:46:47;;;;;;;;;4.25;3.00;;;;;19.38;48.90;100755.81;5082949;28;45257;-50
2021/08/01 07:49:12;;;;;;;;;2.25;2.00;;;;;19.42;49.07;100761.84;5081595;28;45926;-53
2021/08/01 07:51:38;;;;;;;;;5.00;4.25;;;;;19.46;48.65;100766.09;5082547;27;45181;-53
2021/08/01 07:54:03;;;;;;;;;3.50;3.00;;;;;19.49;48.83;100769.44;5082851;28;45277;-51
2021/08/01 07:56:28;;;;;;;;;3.75;3.75;;;;;19.52;48.63;100762.25;5082735;28;45440;-53
2021/08/01 07:58:53;;;;;;;;;2.50;2.50;;;;;19.56;49.00;100772.66;5082566;28;45380;-50
2021/08/01 08:01:19;;;;;;;;;2.00;2.00;;;;;19.59;48.95;100766.31;5082427;27;45173;-51
2021/08/01 08:03:44;;;;;;;;;3.00;3.00;;;;;19.66;48.92;100770.41;5082291;28;49985;-52
2021/08/01 08:06:09;;;;;;;;;4.25;3.50;;;;;19.71;48.70;100768.34;5082540;28;45231;-53
2021/08/01 08:08:35;;;;;;;;;2.00;2.00;;;;;19.74;49.12;100765.50;5082444;28;45259;-53
2021/08/01 08:11:00;;;;;;;;;4.50;4.00;;;;;19.78;49.24;100772.41;5082250;27;46370;-54
2021/08/01 08:13:26;;;;;;;;;4.25;3.00;;;;;19.81;48.85;100774.91;5082300;28;45238;-50
2021/08/01 08:15:51;;;;;;;;;3.00;3.00;;;;;19.89;48.75;100771.88;5082668;28;45481;-51
2021/08/01 08:18:16;;;;;;;;;5.50;3.50;;;;;19.95;48.95;100768.03;5082269;28;45206;-51
2021/08/01 08:20:42;;;;;;;;;2.50;2.25;;;;;20.00;48.57;100768.66;5082177;27;45726;-53
2021/08/01 08:23:08;;;;;;;;;3.00;3.00;;;;;20.04;48.71;100772.03;5080941;28;45288;-53
2021/08/01 08:25:33;;;;;;;;;3.00;3.00;;;;;20.13;48.99;100769.69;5082240;28;45298;-53
2021/08/01 08:27:59;;;;;;;;;2.25;2.25;;;;;20.21;48.68;100779.09;5081890;28;45252;-52
2021/08/01 08:30:24;;;;;;;;;2.75;2.75;;;;;20.26;48.47;100771.72;5082256;27;46294;-50
2021/08/01 08:32:50;;;;;;;;;3.25;2.50;;;;;20.31;49.06;100774.97;5081851;28;45457;-52
2021/08/01 08:35:15;;;;;;;;;3.25;2.00;;;;;20.38;49.05;100786.22;5082306;27;45771;-53
2021/08/01 08:37:49;;;;;;;;;3.50;3.50;;;;;20.42;48.59;100785.09;5080765;28;45357;-50
2021/08/01 08:40:14;;;;;;;;;3.50;3.00;;;;;20.43;48.80;100785.00;5081565;27;47221;-51
2021/08/01 08:42:43;;;;;;;;;2.00;2.00;;;;;20.50;49.32;100781.97;5081888;28;45338;-52
2021/08/01 08:45:09;;;;;;;;;2.75;2.75;;;;;20.49;49.09;100780.25;5082378;28;45303;-51
2021/08/01 08:47:36;;;;;;;;;3.75;2.75;;;;;20.52;49.09;100786.28;5081899;28;45258;-52
2021/08/01 08:50:03;;;;;;;;;3.00;3.00;;;;;20.56;49.15;100787.00;5081781;28;46190;-50
2021/08/01 08:52:31;;;;;;;;;3.25;3.25;;;;;20.55;48.85;100778.13;5082332;28;45510;-52
2021/08/01 08:54:59;;;;;;;;;3.50;3.50;;;;;20.59;48.96;100784.13;5080778;28;45466;-50
2021/08/01 08:57:30;;;;;;;;;1.25;1.25;;;;;20.60;49.05;100788.53;5081934;28;45173;-49
2021/08/01 09:00:04;;;;;;;;;4.00;3.00;;;;;20.60;49.06;100788.53;5081571;27;46251;-49
2021/08/01 09:02:29;;;;;;;;;4.00;4.00;;;;;20.62;48.92;100797.31;5081939;28;45432;-48
2021/08/01 09:04:57;;;;;;;;;3.25;2.25;;;;;20.59;48.31;100785.00;5080527;28;45526;-49
2021/08/01 09:07:22;;;;;;;;;5.00;2.75;;;;;20.63;48.28;100786.56;5082247;28;45209;-50
2021/08/01 09:09:48;;;;;;;;;1.50;1.50;;;;;20.67;48.48;100794.41;5081616;28;45390;-47
2021/08/01 09:12:13;;;;;;;;;4.50;2.50;;;;;20.68;48.73;100785.44;5081525;28;45311;-48
2021/08/01 09:14:39;;;;;;;;;3.00;3.00;;;;;20.70;48.11;100792.41;5081851;28;45443;-47
2021/08/01 09:17:04;;;;;;;;;4.00;3.00;;;;;20.72;48.44;100790.56;5081855;28;45526;-48
2021/08/01 09:19:35;;;;;;;;;4.00;3.25;;;;;20.71;48.52;100785.31;5081443;28;46218;-50
2021/08/01 09:22:22;;;;;;;;;5.25;3.25;;;;;20.75;48.57;100793.06;5081591;27;45275;-49
2021/08/01 09:24:52;;;;;;;;;4.75;3.00;;;;;20.77;48.68;100782.28;5081018;28;45254;-50
2021/08/01 09:27:34;;;;;;;;;4.00;3.00;;;;;20.80;48.11;100786.59;5081030;28;45283;-49
2021/08/01 09:30:00;;;;;;;;;3.25;3.25;;;;;20.82;47.95;100784.69;5080158;28;45290;-51
2021/08/01 09:32:29;;;;;;;;;2.50;2.00;;;;;20.84;47.83;100789.03;5081168;28;45515;-48
2021/08/01 09:34:55;;;;;;;;;4.00;2.00;;;;;20.86;48.13;100784.44;5068333;28;45333;-47
2021/08/01 09:37:30;;;;;;;;;1.00;1.00;;;;;20.88;48.41;100789.69;5081276;28;45434;-50
2021/08/01 09:40:09;;;;;;;;;3.50;3.50;;;;;20.94;47.93;100792.88;5081042;27;46042;-51
2021/08/01 09:42:40;;;;;;;;;3.00;3.00;;;;;20.99;47.90;100797.94;5080966;28;46447;-48
2021/08/01 09:45:20;;;;;;;;;3.00;3.00;;;;;21.04;47.69;100790.56;5081237;28;45315;-52
2021/08/01 09:47:48;;;;;;;;;4.00;3.00;;;;;21.08;48.26;100785.88;5068147;28;45273;-51
2021/08/01 09:50:15;;;;;;;;;2.75;2.75;;;;;21.10;48.33;100787.50;5080920;27;46155;-51
2021/08/01 09:52:42;;;;;;;;;4.25;3.25;;;;;21.12;47.80;100782.09;5081015;28;45366;-52
2021/08/01 09:55:21;;;;;;;;;3.75;3.00;;;;;21.18;47.50;100784.41;5080867;28;45220;-52
2021/08/01 09:57:57;;;;;;;;;2.00;2.00;;;;;21.22;47.42;100788.63;5079655;28;45486;-50
2021/08/01 10:00:23;;;;;;;;;3.00;3.00;;;;;21.24;47.76;100777.84;5080536;27;46030;-51
2021/08/01 10:02:49;;;;;;;;;2.75;2.00;;;;;21.23;47.13;100776.09;5080876;27;45386;-50
2021/08/01 10:05:15;;;;;;;;;2.00;1.00;;;;;21.25;47.17;100769.72;5080277;28;45323;-50
2021/08/01 10:07:45;;;;;;;;;2.00;2.00;;;;;21.26;47.12;100770.59;5080713;28;45444;-50
2021/08/01 10:10:18;;;;;;;;;3.75;2.25;;;;;21.32;47.42;100772.91;5079225;27;47259;-53
2021/08/01 10:12:46;;;;;;;;;2.75;2.75;;;;;21.37;47.38;100772.63;5080585;28;45248;-52
2021/08/01 10:15:11;;;;;;;;;3.75;3.75;;;;;21.40;46.95;100759.94;5079635;28;45379;-50
2021/08/01 10:17:38;;;;;;;;;2.25;1.00;;;;;21.47;47.25;100764.91;5080757;28;45484;-53
2021/08/01 10:20:05;;;;;;;;;2.50;2.50;;;;;21.50;46.96;100767.44;5080476;27;46859;-50
2021/08/01 10:22:32;;;;;;;;;3.50;3.00;;;;;21.53;46.65;100759.22;5080415;27;45377;-53
2021/08/01 10:25:01;;;;;;;;;2.25;2.00;;;;;21.55;47.05;100763.53;5080629;28;45347;-53
2021/08/01 10:27:27;;;;;;;;;3.75;3.50;;;;;21.57;46.84;100764.31;5080376;28;45472;-55
2021/08/01 10:29:56;;;;;;;;;1.00;0.00;;;;;21.59;46.67;100756.19;5080576;28;46172;-50
2021/08/01 10:32:24;;;;;;;;;1.50;1.50;;;;;21.62;46.29;100768.53;5080441;28;45341;-52
2021/08/01 10:35:06;;;;;;;;;2.75;2.75;;;;;21.67;46.21;100761.97;5080570;28;45306;-52
2021/08/01 10:37:37;;;;;;;;;1.25;1.25;;;;;21.73;46.50;100753.53;5079209;28;45423;-50
2021/08/01 10:40:06;;;;;;;;;1.25;1.25;;;;;21.81;46.75;100760.25;5080246;27;45392;-53
2021/08/01 10:42:32;;;;;;;;;3.25;1.00;;;;;21.92;46.53;100755.09;5078795;28;45499;-52
2021/08/01 10:44:58;;;;;;;;;1.00;1.00;;;;;22.03;46.69;100749.94;5080431;28;45263;-51
2021/08/01 10:47:25;;;;;;;;;3.00;3.00;;;;;22.18;46.44;100753.47;5080314;28;45228;-50
2021/08/01 10:49:51;;;;;;;;;2.00;2.00;;;;;22.35;46.68;100748.84;5080215;27;45432;-53
2021/08/01 10:52:18;;;;;;;;;2.50;2.50;;;;;22.51;46.36;100746.94;5080040;28;45437;-51
2021/08/01 10:54:55;;;;;;;;;1.25;1.25;;;;;22.68;46.32;100756.59;5080319;28;45267;-52
2021/08/01 10:57:22;;;;;;;;;1.00;1.00;;;;;22.87;46.48;100742.84;5078621;28;45392;-51
2021/08/01 10:59:47;;;;;;;;;2.25;2.00;;;;;23.14;45.91;100746.47;5079824;27;46360;-52
2021/08/01 11:02:18;;;;;;;;;1.50;1.50;;;;;23.35;45.67;100738.81;5080076;28;45244;-50
2021/08/01 11:04:46;;;;;;;;;2.00;1.00;;;;;23.58;45.64;100741.75;5080007;28;45430;-53
2021/08/01 11:07:32;;;;;;;;;2.00;2.00;;;;;23.79;45.46;100744.78;5080018;28;45343;-53
2021/08/01 11:10:10;;;;;;;;;1.75;1.75;;;;;24.02;45.60;100741.38;5047368;28;48155;-53
2021/08/01 11:12:41;;;;;;;;;2.00;2.00;;;;;24.18;45.65;100740.25;5079724;28;45212;-52
2021/08/01 11:15:08;;;;;;;;;0.50;0.50;;;;;24.32;45.25;100737.41;5080114;28;45315;-53
2021/08/01 11:17:56;;;;;;;;;1.50;1.00;;;;;24.48;45.04;100747.06;5079813;28;45326;-52
2021/08/01 11:20:24;;;;;;;;;1.00;1.00;;;;;24.60;44.58;100724.69;5073723;28;45490;-51
2021/08/01 11:22:54;;;;;;;;;2.25;0.75;;;;;24.75;44.38;100738.81;5079663;28;45346;-52
2021/08/01 11:25:36;;;;;;;;;0.25;0.25;;;;;24.91;44.71;100733.16;5079773;28;45434;-53